This is the latest recevied weather packets stored in our database for station/object DK0GS-10. If no packets are shown the sender has not sent any weather packets the latest 10 day(s).
| Time | Temp. | Humidity | Pressure | Rain* | Wind** | Luminosity | Snow |
|---|---|---|---|---|---|---|---|
| 1777959921 | 12.78° C | 96% | 1009 hPa | 0 mm | - | - | - |
| 1777958721 | 12.78° C | 96% | 1009 hPa | 0.51 mm | - | - | - |
| 1777954521 | 12.78° C | 96% | 1009.2 hPa | 1.27 mm | - | - | - |
| 1777952785 | 12.78° C | 96% | 1009.4 hPa | 0.25 mm | - | - | - |
| 1777952121 | 12.78° C | 96% | 1009.5 hPa | 0.25 mm | - | - | - |
| 1777951521 | 12.78° C | 96% | 1009.5 hPa | 0 mm | - | - | - |
| 1777943123 | 12.78° C | 95% | 1010.1 hPa | 0 mm | - | - | - |
| 1777938923 | 12.78° C | 94% | 1010.5 hPa | 0.25 mm | - | - | - |
| 1777937123 | 13.33° C | 94% | 1011 hPa | 0.25 mm | - | - | - |
| 1777934723 | 13.33° C | 94% | 1011.3 hPa | 0 mm | - | - | - |
| 1777934122 | 13.33° C | 94% | 1011.4 hPa | 0 mm | - | - | - |
| 1777932922 | 13.89° C | 94% | 1011.3 hPa | 0 mm | - | - | - |
| 1777928722 | 13.89° C | 93% | 1011.9 hPa | 0 mm | - | - | - |
| 1777924573 | 14.44° C | 91% | 1011.8 hPa | 4.32 mm | - | - | - |
| 1777922736 | 14.44° C | 89% | 1011.8 hPa | 3.3 mm | - | - | - |
| 1777919161 | 15.56° C | 85% | 1011.4 hPa | 0 mm | - | - | - |
| 1777913737 | 19.44° C | 61% | 1010.3 hPa | 0 mm | - | - | - |
| 1777910122 | 20.56° C | 56% | 1010.3 hPa | 0 mm | - | - | - |
| 1777908922 | 20.56° C | 55% | 1010.3 hPa | 0 mm | - | - | - |
| 1777902961 | 22.22° C | 53% | 1011.1 hPa | 0 mm | - | - | - |
| 1777898122 | 21.11° C | 55% | 1011.6 hPa | 0 mm | - | - | - |
| 1777890921 | 18.89° C | 64% | 1012.4 hPa | 0 mm | - | - | - |
| 1777889722 | 19.44° C | 64% | 1012.6 hPa | 0 mm | - | - | - |
| 1777886722 | 17.78° C | 69% | 1012.7 hPa | 0 mm | - | - | - |
| 1777884947 | 16.67° C | 71% | 1012.8 hPa | 0 mm | - | - | - |
* Rain latest hour (hover to see other rain measurements)
** Current wind speed in m/s (hover to see current wind gust speed)